Airfield :
LOGIN :

Register | Disclaimer

   EN    FR    IT 

 










Legend :    VFR   Marginal VFR   IFR   Intensive IFR   Very Intensive IFR
Visi :
Ceiling :
>= 8 km
>= 3000ft
5 to 8 km
1000 to 3000 ft
1500m to 5 km
500 to 1000 ft
800 to 1500m
200 to 500 ft
< 800m
< 200 ft
Symbols :   Thunderstorms  Fog  Heavy snow  Heavy precipitations  Wind > 20 kt
SIGMETs :     Misc.  Thunderstorms  Icing  Turbulence  Mountain Waves  Volcanic Ashes







- Airport Elevation : 1548 ft


LKNA - Náměšť Air Base

CURRENT METAR :
  • 251200Z 26009KT 9999 -RA NSC 13/07 Q1008 NOSIG

EXPIRED METARs :
  • 251100Z 21005KT 160V240 CAVOK 12/06 Q1008 NOSIG RMK BLU BLU
  • 251000Z 14004KT 110V180 CAVOK 10/05 Q1008 NOSIG RMK BLU BLU

TAF TAF LKNA
Valid from the 25 at 12:00 until the 26 at 12:00 UTC


251100Z 2512/2612 13008KT 9999 BKN045
BECMG 2512/2514 27016G26KT
TEMPO 2513/2523 8000 SHRA BKN020TCU
PROB30
TEMPO 2514/2522 30016G28KT 5000 TSRA SCT015CB BKN020
BECMG 2600/2602 35016KT
No reported NOTAMs for that airfield.



MET'MAP, your aeronautical weather chart ! - Copyright ORBIFLY December 2007 - Disclaimer

ORBIFLY MET'MAP TEAM :

Programming & Development : Alexandra Zaïnal
Concept & Development : Baudouin d'Aumeries
Co-Development & Prog : Marc-Olivier Méhu
Technical & hardware support : Manuel Goepfert

Contact : metmap@orbifly.com




SOURCES & CREDITS :

   NOAA